Aviation Digital Data Service (ADDS)

Output produced by TAFs form (1556 UTC 28 April 2015)
found at http://www.aviationweather.gov/adds/tafs/
 
KMRB 281139Z 2812/2912 32011KT P6SM SCT060 
     FM282200 33007KT P6SM SCT050 
     FM290300 VRB03KT P6SM FEW120